Time,TemperatureF,DewpointF,PressureIn,WindDirection,WindDirectionDegrees,WindSpeedMPH,WindSpeedGustMPH,Humidity,HourlyPrecipIn,Conditions,Clouds,dailyrainin,SoftwareType,DateUTC
2013-09-12 00:03:00,77.2,68.7,30.03,WNW,297,0.0,1.0,75,0.00,,SKC,0.00,VWS V12.07,2013-09-12 05:03:00,
2013-09-12 00:09:00,77.0,68.1,30.03,NW,309,2.0,3.0,74,0.00,,SKC,0.00,VWS V12.07,2013-09-12 05:09:00,
2013-09-12 00:15:00,77.0,68.1,30.02,ENE,72,3.0,4.0,74,0.00,,SKC,0.00,VWS V12.07,2013-09-12 05:15:00,
2013-09-12 00:21:00,77.0,68.1,30.02,NE,41,1.0,6.0,74,0.00,,SKC,0.00,VWS V12.07,2013-09-12 05:21:00,
2013-09-12 00:27:00,76.9,68.4,30.02,ENE,68,2.0,6.0,75,0.00,,SKC,0.00,VWS V12.07,2013-09-12 05:27:00,
2013-09-12 00:33:00,76.8,68.3,30.02,East,79,1.0,5.0,75,0.00,,SKC,0.00,VWS V12.07,2013-09-12 05:33:00,
2013-09-12 00:39:00,76.9,68.4,30.02,NW,319,0.0,5.0,75,0.00,,SKC,0.00,VWS V12.07,2013-09-12 05:39:00,
2013-09-12 00:45:00,76.8,68.7,30.02,ENE,77,3.0,8.0,76,0.00,,SKC,0.00,VWS V12.07,2013-09-12 05:45:00,
2013-09-12 00:51:00,77.0,68.9,30.02,NNE,29,2.0,8.0,76,0.00,,SKC,0.00,VWS V12.07,2013-09-12 05:51:00,
2013-09-12 00:57:00,76.8,68.7,30.02,East,84,3.0,8.0,76,0.00,,SKC,0.00,VWS V12.07,2013-09-12 05:57:00,
2013-09-12 01:03:00,76.6,68.9,30.02,NNW,342,3.0,3.0,77,0.00,,SKC,0.00,VWS V12.07,2013-09-12 06:03:00,
2013-09-12 01:09:00,76.4,69.0,30.02,NE,54,2.0,5.0,78,0.00,,SKC,0.00,VWS V12.07,2013-09-12 06:09:00,
2013-09-12 01:15:00,76.2,68.8,30.02,NNE,33,1.0,5.0,78,0.00,,SKC,0.00,VWS V12.07,2013-09-12 06:15:00,
2013-09-12 01:22:00,76.1,69.1,30.02,SW,231,0.0,5.0,79,0.00,,SKC,0.00,VWS V12.07,2013-09-12 06:22:00,
2013-09-12 01:27:00,76.0,69.4,30.02,East,92,1.0,5.0,80,0.00,,SKC,0.00,VWS V12.07,2013-09-12 06:27:00,
2013-09-12 01:35:00,75.8,69.6,30.02,ENE,68,3.0,5.0,81,0.00,,SKC,0.00,VWS V12.07,2013-09-12 06:35:00,
2013-09-12 01:41:00,75.7,69.5,30.02,NNW,330,1.0,5.0,81,0.00,,SKC,0.00,VWS V12.07,2013-09-12 06:41:00,
2013-09-12 01:46:00,75.6,69.7,30.03,NNW,330,1.0,5.0,82,0.00,,SKC,0.00,VWS V12.07,2013-09-12 06:46:00,
2013-09-12 01:52:00,75.5,69.6,30.03,ENE,63,2.0,5.0,82,0.00,,SKC,0.00,VWS V12.07,2013-09-12 06:52:00,
2013-09-12 01:58:00,75.3,69.8,30.03,North,349,5.0,7.0,83,0.00,,SKC,0.00,VWS V12.07,2013-09-12 06:58:00,
2013-09-12 02:04:00,75.0,70.2,30.03,WNW,285,2.0,8.0,85,0.00,,SKC,0.00,VWS V12.07,2013-09-12 07:04:00,
2013-09-12 02:09:00,74.6,70.1,30.03,NW,319,5.0,12.0,86,0.00,,SKC,0.00,VWS V12.07,2013-09-12 07:09:00,
2013-09-12 02:15:00,74.3,70.2,30.02,East,89,3.0,12.0,87,0.00,,SKC,0.00,VWS V12.07,2013-09-12 07:15:00,
2013-09-12 02:21:00,73.8,70.0,30.02,North,355,5.0,12.0,88,0.00,,SKC,0.00,VWS V12.07,2013-09-12 07:21:00,
2013-09-12 02:27:00,73.4,70.3,30.02,NE,44,1.0,12.0,90,0.00,,SKC,0.00,VWS V12.07,2013-09-12 07:27:00,
2013-09-12 02:33:00,72.9,70.1,30.02,NNE,27,4.0,6.0,91,0.00,,SKC,0.00,VWS V12.07,2013-09-12 07:33:00,
2013-09-12 02:39:00,72.7,70.2,30.02,NNE,25,1.0,6.0,92,0.00,,SKC,0.00,VWS V12.07,2013-09-12 07:39:00,
2013-09-12 02:45:00,72.4,70.3,30.02,ENE,63,1.0,6.0,93,0.00,,SKC,0.00,VWS V12.07,2013-09-12 07:45:00,
2013-09-12 02:51:00,72.3,70.5,30.02,NE,47,2.0,6.0,94,0.00,,SKC,0.00,VWS V12.07,2013-09-12 07:51:00,
2013-09-12 02:54:00,72.2,70.4,30.01,ENE,68,2.0,6.0,94,0.00,,SKC,0.00,VWS V12.07,2013-09-12 07:54:00,
2013-09-12 03:00:00,72.1,70.3,30.01,SE,129,0.0,6.0,94,0.00,,SKC,0.00,VWS V12.07,2013-09-12 08:00:00,
2013-09-12 03:06:00,72.1,70.3,30.01,East,92,2.0,5.0,94,0.00,,SKC,0.00,VWS V12.07,2013-09-12 08:06:00,
2013-09-12 03:12:00,72.0,70.2,30.01,NNE,30,2.0,5.0,94,0.00,,SKC,0.00,VWS V12.07,2013-09-12 08:12:00,
2013-09-12 03:18:00,72.0,70.5,30.02,East,79,0.0,5.0,95,0.00,,SKC,0.00,VWS V12.07,2013-09-12 08:18:00,
2013-09-12 03:23:00,72.0,70.5,30.02,East,79,0.0,5.0,95,0.00,,SKC,0.00,VWS V12.07,2013-09-12 08:23:00,
2013-09-12 03:31:00,71.9,70.4,30.02,ESE,112,0.0,5.0,95,0.00,,SKC,0.00,VWS V12.07,2013-09-12 08:31:00,
2013-09-12 03:36:00,71.9,70.4,30.02,North,5,0.0,0.0,95,0.00,,SKC,0.00,VWS V12.07,2013-09-12 08:36:00,
2013-09-12 03:41:00,71.9,70.4,30.03,NNW,345,0.0,2.0,95,0.00,,SKC,0.00,VWS V12.07,2013-09-12 08:41:00,
2013-09-12 03:47:00,71.9,70.7,30.03,NNE,22,0.0,2.0,96,0.00,,SKC,0.00,VWS V12.07,2013-09-12 08:47:00,
2013-09-12 03:53:00,71.9,70.7,30.04,NNW,338,1.0,4.0,96,0.00,,SKC,0.00,VWS V12.07,2013-09-12 08:53:00,
2013-09-12 03:59:00,71.9,70.7,30.04,NNE,12,1.0,4.0,96,0.00,,SKC,0.00,VWS V12.07,2013-09-12 08:59:00,
2013-09-12 04:05:00,71.9,70.7,30.04,NNW,340,3.0,7.0,96,0.00,,SKC,0.00,VWS V12.07,2013-09-12 09:05:00,
2013-09-12 04:10:00,71.9,70.4,30.05,North,4,3.0,7.0,95,0.00,,SKC,0.00,VWS V12.07,2013-09-12 09:10:00,
2013-09-12 04:16:00,71.8,70.3,30.05,NE,39,3.0,7.0,95,0.00,,SKC,0.00,VWS V12.07,2013-09-12 09:16:00,
2013-09-12 04:22:00,71.8,70.3,30.05,NW,316,2.0,7.0,95,0.01,,SKC,0.01,VWS V12.07,2013-09-12 09:22:00,
2013-09-12 04:28:00,71.6,70.1,30.06,NW,319,2.0,7.0,95,0.05,,SKC,0.05,VWS V12.07,2013-09-12 09:28:00,
2013-09-12 04:34:00,71.5,70.3,30.06,NW,318,2.0,5.0,96,0.14,,SKC,0.16,VWS V12.07,2013-09-12 09:34:00,
2013-09-12 04:40:00,71.1,69.9,30.06,NNE,16,2.0,7.0,96,0.22,,SKC,0.23,VWS V12.07,2013-09-12 09:40:00,
2013-09-12 04:46:00,70.9,69.7,30.06,NNW,327,0.0,7.0,96,0.25,,SKC,0.25,VWS V12.07,2013-09-12 09:46:00,
2013-09-12 04:52:00,70.5,69.3,30.06,West,278,2.0,7.0,96,0.29,,SKC,0.30,VWS V12.07,2013-09-12 09:52:00,
2013-09-12 04:58:00,70.3,69.4,30.07,NW,315,2.0,7.0,97,0.37,,SKC,0.37,VWS V12.07,2013-09-12 09:58:00,
2013-09-12 05:06:00,70.1,69.2,30.06,NW,311,1.0,2.0,97,0.38,,SKC,0.38,VWS V12.07,2013-09-12 10:06:00,
2013-09-12 05:12:00,70.1,69.2,30.06,North,354,0.0,3.0,97,0.38,,SKC,0.38,VWS V12.07,2013-09-12 10:12:00,
2013-09-12 05:18:00,70.0,69.1,30.06,East,83,2.0,4.0,97,0.39,,SKC,0.39,VWS V12.07,2013-09-12 10:18:00,
2013-09-12 05:24:00,69.9,69.0,30.06,North,354,1.0,4.0,97,0.39,,SKC,0.39,VWS V12.07,2013-09-12 10:24:00,
2013-09-12 05:30:00,69.8,68.9,30.06,NNE,18,0.0,4.0,97,0.39,,SKC,0.39,VWS V12.07,2013-09-12 10:30:00,
2013-09-12 05:36:00,69.8,68.9,30.06,East,83,0.0,3.0,97,0.29,,SKC,0.39,VWS V12.07,2013-09-12 10:36:00,
2013-09-12 05:42:00,69.7,69.1,30.06,ENE,61,1.0,3.0,98,0.29,,SKC,0.39,VWS V12.07,2013-09-12 10:42:00,
2013-09-12 05:47:00,69.6,69.0,30.06,NE,41,0.0,3.0,98,0.29,,SKC,0.39,VWS V12.07,2013-09-12 10:47:00,
2013-09-12 05:53:00,69.6,69.0,30.06,ENE,70,0.0,3.0,98,0.29,,SKC,0.39,VWS V12.07,2013-09-12 10:53:00,
2013-09-12 05:59:00,69.5,68.9,30.06,ENE,69,0.0,3.0,98,0.29,,SKC,0.39,VWS V12.07,2013-09-12 10:59:00,
2013-09-12 06:05:00,69.5,68.9,30.06,ENE,68,0.0,0.0,98,0.02,,SKC,0.39,VWS V12.07,2013-09-12 11:05:00,
2013-09-12 06:11:00,69.4,68.8,30.06,ENE,70,0.0,0.0,98,0.02,,SKC,0.39,VWS V12.07,2013-09-12 11:11:00,
2013-09-12 06:17:00,69.4,68.8,30.06,ENE,70,0.0,0.0,98,0.03,,SKC,0.40,VWS V12.07,2013-09-12 11:17:00,
2013-09-12 06:23:00,69.5,68.9,30.07,ENE,68,0.0,0.0,98,0.05,,SKC,0.42,VWS V12.07,2013-09-12 11:23:00,
2013-09-12 06:29:00,69.5,68.9,30.07,ENE,68,0.0,0.0,98,0.06,,SKC,0.43,VWS V12.07,2013-09-12 11:29:00,
2013-09-12 06:35:00,69.5,68.9,30.08,NW,314,0.0,2.0,98,0.04,,SKC,0.44,VWS V12.07,2013-09-12 11:35:00,
2013-09-12 06:41:00,69.5,68.9,30.08,NW,308,0.0,2.0,98,0.09,,SKC,0.48,VWS V12.07,2013-09-12 11:41:00,
2013-09-12 06:47:00,69.3,68.7,30.08,North,349,0.0,2.0,98,0.11,,SKC,0.50,VWS V12.07,2013-09-12 11:47:00,
2013-09-12 06:52:00,69.2,68.6,30.09,North,349,0.0,2.0,98,0.13,,SKC,0.52,VWS V12.07,2013-09-12 11:52:00,
2013-09-12 06:58:00,69.0,68.4,30.08,North,355,0.0,2.0,98,0.16,,SKC,0.55,VWS V12.07,2013-09-12 11:58:00,
2013-09-12 07:03:00,68.8,68.2,30.08,South,170,0.0,2.0,98,0.17,,SKC,0.56,VWS V12.07,2013-09-12 12:03:00,
2013-09-12 07:08:00,68.8,68.2,30.08,SE,136,2.0,3.0,98,0.18,,SKC,0.57,VWS V12.07,2013-09-12 12:08:00,
2013-09-12 07:14:00,68.6,68.0,30.07,SE,145,0.0,3.0,98,0.18,,SKC,0.57,VWS V12.07,2013-09-12 12:14:00,
2013-09-12 07:20:00,68.3,67.7,30.06,SSE,150,4.0,5.0,98,0.19,,SKC,0.58,VWS V12.07,2013-09-12 12:20:00,
2013-09-12 07:26:00,68.3,67.7,30.07,SSE,162,1.0,5.0,98,0.19,,SKC,0.58,VWS V12.07,2013-09-12 12:26:00,
2013-09-12 07:31:00,68.0,67.4,30.06,SE,140,2.0,5.0,98,0.19,,SKC,0.58,VWS V12.07,2013-09-12 12:31:00,
2013-09-12 07:36:00,67.6,67.0,30.06,SE,146,0.0,5.0,98,0.15,,SKC,0.58,VWS V12.07,2013-09-12 12:36:00,
2013-09-12 07:42:00,67.5,66.9,30.06,SSE,151,1.0,5.0,98,0.15,,SKC,0.58,VWS V12.07,2013-09-12 12:42:00,
2013-09-12 07:49:00,67.3,66.7,30.06,SW,219,1.0,5.0,98,0.15,,SKC,0.58,VWS V12.07,2013-09-12 12:49:00,
2013-09-12 07:56:00,67.2,66.6,30.07,SW,215,0.0,5.0,98,0.15,,SKC,0.58,VWS V12.07,2013-09-12 12:56:00,
2013-09-12 08:03:00,67.1,66.5,30.06,SSE,162,0.0,0.0,98,0.03,,SKC,0.58,VWS V12.07,2013-09-12 13:03:00,
2013-09-12 08:09:00,67.2,66.6,30.06,SSE,164,0.0,0.0,98,0.03,,SKC,0.58,VWS V12.07,2013-09-12 13:09:00,
2013-09-12 08:14:00,67.1,66.5,30.06,SE,141,2.0,3.0,98,0.03,,SKC,0.58,VWS V12.07,2013-09-12 13:14:00,
2013-09-12 08:20:00,67.0,66.4,30.06,SSE,155,0.0,3.0,98,0.03,,SKC,0.58,VWS V12.07,2013-09-12 13:20:00,
2013-09-12 08:27:00,67.2,66.6,30.07,SSE,156,0.0,3.0,98,0.03,,SKC,0.58,VWS V12.07,2013-09-12 13:27:00,
2013-09-12 08:32:00,67.3,67.0,30.07,SSE,157,0.0,0.0,99,0.03,,SKC,0.58,VWS V12.07,2013-09-12 13:32:00,
2013-09-12 08:39:00,67.3,67.0,30.08,SSE,156,0.0,0.0,99,0.00,,SKC,0.58,VWS V12.07,2013-09-12 13:39:00,
2013-09-12 08:44:00,67.4,67.1,30.08,SSE,156,0.0,0.0,99,0.00,,SKC,0.58,VWS V12.07,2013-09-12 13:44:00,
2013-09-12 08:49:00,67.5,67.2,30.08,WNW,288,0.0,1.0,99,0.00,,SKC,0.58,VWS V12.07,2013-09-12 13:49:00,
2013-09-12 08:55:00,67.7,67.4,30.07,SW,235,0.0,1.0,99,0.00,,SKC,0.58,VWS V12.07,2013-09-12 13:55:00,
2013-09-12 09:01:00,67.7,67.4,30.07,WSW,256,0.0,1.0,99,0.00,,SKC,0.58,VWS V12.07,2013-09-12 14:01:00,
2013-09-12 09:06:00,67.8,67.5,30.07,WSW,256,0.0,1.0,99,0.00,,SKC,0.58,VWS V12.07,2013-09-12 14:06:00,
2013-09-12 09:12:00,67.8,67.5,30.07,SW,219,0.0,1.0,99,0.00,,SKC,0.58,VWS V12.07,2013-09-12 14:12:00,
2013-09-12 09:17:00,68.0,67.7,30.07,West,264,0.0,1.0,99,0.00,,SKC,0.58,VWS V12.07,2013-09-12 14:17:00,
2013-09-12 09:22:00,68.2,67.9,30.07,NW,319,0.0,2.0,99,0.00,,SKC,0.58,VWS V12.07,2013-09-12 14:22:00,
2013-09-12 09:28:00,68.2,67.9,30.08,WNW,288,1.0,3.0,99,0.00,,SKC,0.58,VWS V12.07,2013-09-12 14:28:00,
2013-09-12 09:34:00,68.5,67.9,30.07,SW,215,0.0,2.0,98,0.00,,SKC,0.58,VWS V12.07,2013-09-12 14:34:00,
2013-09-12 09:40:00,68.7,68.1,30.07,WNW,297,1.0,2.0,98,0.00,,SKC,0.58,VWS V12.07,2013-09-12 14:40:00,
2013-09-12 09:46:00,68.6,68.0,30.07,WNW,288,0.0,2.0,98,0.00,,SKC,0.58,VWS V12.07,2013-09-12 14:46:00,
2013-09-12 09:51:00,68.8,68.2,30.07,WNW,285,0.0,2.0,98,0.00,,SKC,0.58,VWS V12.07,2013-09-12 14:51:00,
2013-09-12 09:56:00,68.8,68.2,30.07,WNW,285,0.0,2.0,98,0.00,,SKC,0.58,VWS V12.07,2013-09-12 14:56:00,
2013-09-12 10:01:00,68.9,68.3,30.08,WNW,293,1.0,3.0,98,0.00,,SKC,0.58,VWS V12.07,2013-09-12 15:01:00,
2013-09-12 10:08:00,68.9,68.0,30.08,NW,311,0.0,4.0,97,0.00,,SKC,0.58,VWS V12.07,2013-09-12 15:08:00,
2013-09-12 10:14:00,68.9,68.0,30.08,WNW,295,1.0,4.0,97,0.00,,SKC,0.58,VWS V12.07,2013-09-12 15:14:00,
2013-09-12 10:21:00,69.2,68.3,30.08,NW,312,1.0,4.0,97,0.00,,SKC,0.58,VWS V12.07,2013-09-12 15:21:00,
2013-09-12 10:27:00,69.3,68.4,30.08,NW,311,1.0,4.0,97,0.00,,SKC,0.58,VWS V12.07,2013-09-12 15:27:00,
2013-09-12 10:32:00,69.3,68.4,30.08,WNW,290,3.0,5.0,97,0.00,,SKC,0.58,VWS V12.07,2013-09-12 15:32:00,
2013-09-12 10:38:00,69.7,68.8,30.09,NW,309,1.0,5.0,97,0.00,,SKC,0.58,VWS V12.07,2013-09-12 15:38:00,
2013-09-12 10:43:00,69.9,68.7,30.09,NNW,327,2.0,5.0,96,0.00,,SKC,0.58,VWS V12.07,2013-09-12 15:43:00,
2013-09-12 10:49:00,70.1,68.6,30.10,NW,322,2.0,6.0,95,0.00,,SKC,0.58,VWS V12.07,2013-09-12 15:49:00,
2013-09-12 10:54:00,70.3,68.5,30.09,NW,319,3.0,6.0,94,0.00,,SKC,0.58,VWS V12.07,2013-09-12 15:54:00,
2013-09-12 11:00:00,70.6,69.1,30.09,WNW,300,3.0,6.0,95,0.00,,SKC,0.58,VWS V12.07,2013-09-12 16:00:00,
2013-09-12 11:06:00,70.9,69.4,30.09,NW,305,0.0,3.0,95,0.00,,SKC,0.58,VWS V12.07,2013-09-12 16:06:00,
2013-09-12 11:11:00,71.1,69.3,30.09,WNW,302,4.0,5.0,94,0.00,,SKC,0.58,VWS V12.07,2013-09-12 16:11:00,
2013-09-12 11:16:00,71.3,69.2,30.09,NW,314,2.0,5.0,93,0.00,,SKC,0.58,VWS V12.07,2013-09-12 16:16:00,
2013-09-12 11:22:00,71.5,69.4,30.09,NW,313,2.0,5.0,93,0.00,,SKC,0.58,VWS V12.07,2013-09-12 16:22:00,
2013-09-12 11:28:00,71.6,69.8,30.09,West,267,0.0,5.0,94,0.00,,SKC,0.58,VWS V12.07,2013-09-12 16:28:00,
2013-09-12 11:34:00,72.2,70.4,30.09,WNW,291,2.0,4.0,94,0.00,,SKC,0.58,VWS V12.07,2013-09-12 16:34:00,
2013-09-12 11:41:00,73.0,70.2,30.09,WNW,302,6.0,6.0,91,0.00,,SKC,0.58,VWS V12.07,2013-09-12 16:41:00,
2013-09-12 11:46:00,72.9,70.1,30.09,NNW,335,1.0,6.0,91,0.00,,SKC,0.58,VWS V12.07,2013-09-12 16:46:00,
2013-09-12 11:51:00,73.3,70.2,30.08,NW,314,3.0,6.0,90,0.00,,SKC,0.58,VWS V12.07,2013-09-12 16:51:00,
2013-09-12 11:57:00,73.6,70.5,30.09,NW,315,0.0,6.0,90,0.00,,SKC,0.58,VWS V12.07,2013-09-12 16:57:00,
2013-09-12 12:03:00,73.8,70.0,30.09,NW,304,4.0,6.0,88,0.00,,SKC,0.58,VWS V12.07,2013-09-12 17:03:00,
2013-09-12 12:08:00,74.2,70.1,30.09,NW,323,5.0,6.0,87,0.00,,SKC,0.58,VWS V12.07,2013-09-12 17:08:00,
2013-09-12 12:13:00,74.7,70.9,30.09,NW,315,0.0,7.0,88,0.00,,SKC,0.58,VWS V12.07,2013-09-12 17:13:00,
2013-09-12 12:19:00,75.5,71.7,30.08,West,259,2.0,7.0,88,0.00,,SKC,0.58,VWS V12.07,2013-09-12 17:19:00,
2013-09-12 12:25:00,76.3,70.4,30.08,NW,314,6.0,7.0,82,0.00,,SKC,0.58,VWS V12.07,2013-09-12 17:25:00,
2013-09-12 12:31:00,77.1,68.6,30.08,WNW,300,0.0,7.0,75,0.00,,SKC,0.58,VWS V12.07,2013-09-12 17:31:00,
2013-09-12 12:36:00,78.0,69.4,30.07,WNW,297,4.0,4.0,75,0.00,,SKC,0.58,VWS V12.07,2013-09-12 17:36:00,
2013-09-12 12:41:00,78.4,68.2,30.07,WNW,302,3.0,6.0,71,0.00,,SKC,0.58,VWS V12.07,2013-09-12 17:41:00,
2013-09-12 12:47:00,78.5,68.3,30.07,WNW,302,4.0,10.0,71,0.00,,SKC,0.58,VWS V12.07,2013-09-12 17:47:00,
2013-09-12 12:55:00,79.2,68.6,30.07,WNW,300,6.0,10.0,70,0.00,,SKC,0.58,VWS V12.07,2013-09-12 17:55:00,
2013-09-12 13:01:00,79.9,68.4,30.07,NNW,330,7.0,10.0,68,0.00,,SKC,0.58,VWS V12.07,2013-09-12 18:01:00,
2013-09-12 13:07:00,79.9,68.0,30.07,WNW,288,4.0,9.0,67,0.00,,SKC,0.58,VWS V12.07,2013-09-12 18:07:00,
2013-09-12 13:13:00,80.1,68.6,30.07,NW,309,7.0,9.0,68,0.00,,SKC,0.58,VWS V12.07,2013-09-12 18:13:00,
2013-09-12 13:19:00,80.2,67.8,30.06,NNW,338,6.0,9.0,66,0.00,,SKC,0.58,VWS V12.07,2013-09-12 18:19:00,
2013-09-12 13:25:00,80.3,68.3,30.06,West,276,1.0,9.0,67,0.00,,SKC,0.58,VWS V12.07,2013-09-12 18:25:00,
2013-09-12 13:31:00,80.8,69.3,30.06,North,6,0.0,9.0,68,0.00,,SKC,0.58,VWS V12.07,2013-09-12 18:31:00,
2013-09-12 13:37:00,81.6,67.3,30.06,NW,316,3.0,10.0,62,0.00,,SKC,0.58,VWS V12.07,2013-09-12 18:37:00,
2013-09-12 13:43:00,81.8,68.0,30.05,North,354,1.0,10.0,63,0.00,,SKC,0.58,VWS V12.07,2013-09-12 18:43:00,
2013-09-12 13:49:00,82.6,68.7,30.05,NW,309,6.0,10.0,63,0.00,,SKC,0.58,VWS V12.07,2013-09-12 18:49:00,
2013-09-12 13:55:00,82.9,68.1,30.05,WNW,297,6.0,10.0,61,0.00,,SKC,0.58,VWS V12.07,2013-09-12 18:55:00,
2013-09-12 14:01:00,82.9,67.6,30.05,WNW,302,8.0,11.0,60,0.00,,SKC,0.58,VWS V12.07,2013-09-12 19:01:00,
2013-09-12 14:07:00,82.8,68.0,30.04,NW,309,6.0,7.0,61,0.00,,SKC,0.58,VWS V12.07,2013-09-12 19:07:00,
2013-09-12 14:13:00,82.6,68.7,30.04,WNW,290,1.0,11.0,63,0.00,,SKC,0.58,VWS V12.07,2013-09-12 19:13:00,
2013-09-12 14:19:00,82.8,68.5,30.04,WNW,302,3.0,11.0,62,0.00,,SKC,0.58,VWS V12.07,2013-09-12 19:19:00,
2013-09-12 14:25:00,83.4,68.1,30.04,North,9,4.0,11.0,60,0.00,,SKC,0.58,VWS V12.07,2013-09-12 19:25:00,
2013-09-12 14:31:00,83.5,67.2,30.03,NW,318,5.0,5.0,58,0.00,,SKC,0.58,VWS V12.07,2013-09-12 19:31:00,
2013-09-12 14:37:00,82.9,67.6,30.03,West,262,5.0,13.0,60,0.00,,SKC,0.58,VWS V12.07,2013-09-12 19:37:00,
2013-09-12 14:43:00,83.0,68.2,30.03,NW,312,9.0,13.0,61,0.00,,SKC,0.58,VWS V12.07,2013-09-12 19:43:00,
2013-09-12 14:49:00,83.7,69.3,30.03,NW,315,2.0,13.0,62,0.00,,SKC,0.58,VWS V12.07,2013-09-12 19:49:00,
2013-09-12 14:55:00,82.7,67.4,30.03,North,357,5.0,13.0,60,0.00,,SKC,0.58,VWS V12.07,2013-09-12 19:55:00,
2013-09-12 15:01:00,82.9,67.6,30.03,WNW,298,3.0,4.0,60,0.00,,SKC,0.58,VWS V12.07,2013-09-12 20:01:00,
2013-09-12 15:07:00,83.9,68.1,30.03,NE,44,3.0,11.0,59,0.00,,SKC,0.58,VWS V12.07,2013-09-12 20:07:00,
2013-09-12 15:13:00,83.2,66.9,30.03,WNW,288,4.0,11.0,58,0.00,,SKC,0.58,VWS V12.07,2013-09-12 20:13:00,
2013-09-12 15:19:00,83.2,64.8,30.03,NNE,25,9.0,13.0,54,0.00,,SKC,0.58,VWS V12.07,2013-09-12 20:19:00,
2013-09-12 15:25:00,83.6,62.4,30.03,NNE,25,5.0,13.0,49,0.00,,SKC,0.58,VWS V12.07,2013-09-12 20:25:00,
2013-09-12 15:31:00,83.7,62.0,30.03,NW,311,7.0,7.0,48,0.00,,SKC,0.58,VWS V12.07,2013-09-12 20:31:00,
2013-09-12 15:37:00,84.1,62.3,30.03,NE,36,6.0,11.0,48,0.00,,SKC,0.58,VWS V12.07,2013-09-12 20:37:00,
2013-09-12 15:43:00,83.8,60.2,30.02,East,84,4.0,11.0,45,0.00,,SKC,0.58,VWS V12.07,2013-09-12 20:43:00,
2013-09-12 15:49:00,83.7,59.5,30.02,NW,305,5.0,12.0,44,0.00,,SKC,0.58,VWS V12.07,2013-09-12 20:49:00,
2013-09-12 15:55:00,83.6,59.4,30.02,North,8,3.0,12.0,44,0.00,,SKC,0.58,VWS V12.07,2013-09-12 20:55:00,
2013-09-12 16:01:00,84.0,59.8,30.02,NE,34,6.0,6.0,44,0.00,,SKC,0.58,VWS V12.07,2013-09-12 21:01:00,
2013-09-12 16:07:00,83.9,59.0,30.02,NNE,32,5.0,10.0,43,0.00,,SKC,0.58,VWS V12.07,2013-09-12 21:07:00,
2013-09-12 16:13:00,83.7,58.2,30.02,NNW,336,1.0,10.0,42,0.00,,SKC,0.58,VWS V12.07,2013-09-12 21:13:00,
2013-09-12 16:19:00,83.9,59.0,30.01,West,277,3.0,10.0,43,0.00,,SKC,0.58,VWS V12.07,2013-09-12 21:19:00,
2013-09-12 16:25:00,83.7,58.8,30.01,East,94,3.0,10.0,43,0.00,,SKC,0.58,VWS V12.07,2013-09-12 21:25:00,
2013-09-12 16:31:00,83.8,58.9,30.02,NW,311,4.0,5.0,43,0.00,,SKC,0.58,VWS V12.07,2013-09-12 21:31:00,
2013-09-12 16:37:00,83.7,57.5,30.02,NNE,13,4.0,10.0,41,0.00,,SKC,0.58,VWS V12.07,2013-09-12 21:37:00,
2013-09-12 16:43:00,83.7,57.5,30.02,NW,321,4.0,11.0,41,0.00,,SKC,0.58,VWS V12.07,2013-09-12 21:43:00,
2013-09-12 16:49:00,83.7,56.1,30.02,NW,319,4.0,11.0,39,0.00,,SKC,0.58,VWS V12.07,2013-09-12 21:49:00,
2013-09-12 16:55:00,83.4,52.9,30.02,NW,325,8.0,15.0,35,0.00,,SKC,0.58,VWS V12.07,2013-09-12 21:55:00,
2013-09-12 17:01:00,83.1,52.6,30.02,NW,307,7.0,7.0,35,0.00,,SKC,0.58,VWS V12.07,2013-09-12 22:01:00,
2013-09-12 17:07:00,82.9,52.5,30.02,WNW,289,3.0,13.0,35,0.00,,SKC,0.58,VWS V12.07,2013-09-12 22:07:00,
2013-09-12 17:13:00,82.8,51.6,30.02,NE,51,5.0,13.0,34,0.00,,SKC,0.58,VWS V12.07,2013-09-12 22:13:00,
2013-09-12 17:19:00,82.7,52.3,30.02,North,357,4.0,13.0,35,0.00,,SKC,0.58,VWS V12.07,2013-09-12 22:19:00,
2013-09-12 17:25:00,82.8,53.2,30.02,North,6,6.0,13.0,36,0.00,,SKC,0.58,VWS V12.07,2013-09-12 22:25:00,
2013-09-12 17:31:00,82.8,53.2,30.02,WNW,291,1.0,13.0,36,0.00,,SKC,0.58,VWS V12.07,2013-09-12 22:31:00,
2013-09-12 17:38:00,82.4,51.2,30.02,NNW,330,4.0,9.0,34,0.00,,SKC,0.58,VWS V12.07,2013-09-12 22:38:00,
2013-09-12 17:45:00,81.9,50.8,30.02,NE,43,2.0,9.0,34,0.00,,SKC,0.58,VWS V12.07,2013-09-12 22:45:00,
2013-09-12 17:51:00,81.6,50.5,30.02,East,91,6.0,10.0,34,0.00,,SKC,0.58,VWS V12.07,2013-09-12 22:51:00,
2013-09-12 17:57:00,81.4,50.4,30.02,NNE,23,5.0,10.0,34,0.00,,SKC,0.58,VWS V12.07,2013-09-12 22:57:00,
2013-09-12 18:03:00,81.1,50.1,30.02,North,352,2.0,8.0,34,0.00,,SKC,0.58,VWS V12.07,2013-09-12 23:03:00,
2013-09-12 18:09:00,81.0,50.8,30.02,NE,37,8.0,8.0,35,0.00,,SKC,0.58,VWS V12.07,2013-09-12 23:09:00,
2013-09-12 18:15:00,80.5,50.4,30.03,West,265,2.0,8.0,35,0.00,,SKC,0.58,VWS V12.07,2013-09-12 23:15:00,
2013-09-12 18:21:00,80.2,49.3,30.03,NE,51,4.0,14.0,34,0.00,,SKC,0.58,VWS V12.07,2013-09-12 23:21:00,
2013-09-12 18:27:00,79.7,49.7,30.03,ESE,123,4.0,14.0,35,0.00,,SKC,0.58,VWS V12.07,2013-09-12 23:27:00,
2013-09-12 18:33:00,79.2,49.2,30.03,North,1,4.0,9.0,35,0.00,,SKC,0.58,VWS V12.07,2013-09-12 23:33:00,
2013-09-12 18:39:00,78.5,49.3,30.03,NE,53,3.0,11.0,36,0.00,,SKC,0.58,VWS V12.07,2013-09-12 23:39:00,
2013-09-12 18:45:00,77.8,48.7,30.03,NNW,327,1.0,11.0,36,0.00,,SKC,0.58,VWS V12.07,2013-09-12 23:45:00,
2013-09-12 18:51:00,77.1,49.6,30.03,NW,323,2.0,11.0,38,0.00,,SKC,0.58,VWS V12.07,2013-09-12 23:51:00,
2013-09-12 18:57:00,76.4,49.6,30.03,NE,43,2.0,11.0,39,0.00,,SKC,0.58,VWS V12.07,2013-09-12 23:57:00,
2013-09-12 19:03:00,75.7,49.7,30.04,NNW,339,0.0,4.0,40,0.00,,SKC,0.58,VWS V12.07,2013-09-13 00:03:00,
2013-09-12 19:09:00,75.0,49.7,30.04,North,359,1.0,5.0,41,0.00,,SKC,0.58,VWS V12.07,2013-09-13 00:09:00,
2013-09-12 19:15:00,74.3,49.8,30.04,NW,304,1.0,5.0,42,0.00,,SKC,0.58,VWS V12.07,2013-09-13 00:15:00,
2013-09-12 19:21:00,73.5,49.7,30.05,NNE,32,2.0,5.0,43,0.00,,SKC,0.58,VWS V12.07,2013-09-13 00:21:00,
2013-09-12 19:27:00,72.9,49.7,30.05,North,359,0.0,5.0,44,0.00,,SKC,0.58,VWS V12.07,2013-09-13 00:27:00,
2013-09-12 19:33:00,72.2,50.3,30.05,NE,36,2.0,3.0,46,0.00,,SKC,0.58,VWS V12.07,2013-09-13 00:33:00,
2013-09-12 19:39:00,71.5,50.2,30.05,WNW,302,1.0,3.0,47,0.00,,SKC,0.58,VWS V12.07,2013-09-13 00:39:00,
2013-09-12 19:45:00,71.0,50.9,30.05,WNW,291,1.0,4.0,49,0.00,,SKC,0.58,VWS V12.07,2013-09-13 00:45:00,
2013-09-12 19:51:00,70.5,51.0,30.06,NNW,338,0.0,4.0,50,0.00,,SKC,0.58,VWS V12.07,2013-09-13 00:51:00,
2013-09-12 19:57:00,69.9,51.0,30.06,NNE,13,0.0,4.0,51,0.00,,SKC,0.58,VWS V12.07,2013-09-13 00:57:00,
2013-09-12 20:03:00,69.4,51.0,30.06,NNE,21,0.0,1.0,52,0.00,,SKC,0.58,VWS V12.07,2013-09-13 01:03:00,
2013-09-12 20:09:00,69.0,51.2,30.07,North,349,0.0,3.0,53,0.00,,SKC,0.58,VWS V12.07,2013-09-13 01:09:00,
2013-09-12 20:15:00,68.7,51.9,30.07,NNW,345,0.0,3.0,55,0.00,,SKC,0.58,VWS V12.07,2013-09-13 01:15:00,
2013-09-12 20:21:00,68.4,52.6,30.07,NNW,330,0.0,3.0,57,0.00,,SKC,0.58,VWS V12.07,2013-09-13 01:21:00,
2013-09-12 20:27:00,67.9,52.6,30.08,NNW,343,0.0,3.0,58,0.00,,SKC,0.58,VWS V12.07,2013-09-13 01:27:00,
2013-09-12 20:33:00,67.3,51.6,30.08,NNW,347,0.0,1.0,57,0.00,,SKC,0.58,VWS V12.07,2013-09-13 01:33:00,
2013-09-12 20:39:00,66.8,52.0,30.08,NNW,347,0.0,1.0,59,0.00,,SKC,0.58,VWS V12.07,2013-09-13 01:39:00,
2013-09-12 20:45:00,66.2,53.2,30.08,NNW,347,0.0,1.0,63,0.00,,SKC,0.58,VWS V12.07,2013-09-13 01:45:00,
2013-09-12 20:51:00,65.7,53.6,30.08,NNW,347,0.0,1.0,65,0.00,,SKC,0.58,VWS V12.07,2013-09-13 01:51:00,
2013-09-12 20:57:00,65.1,53.1,30.09,NNE,16,0.0,1.0,65,0.00,,SKC,0.58,VWS V12.07,2013-09-13 01:57:00,
2013-09-12 21:04:00,64.9,52.5,30.09,NNW,340,2.0,2.0,64,0.00,,SKC,0.58,VWS V12.07,2013-09-13 02:04:00,
2013-09-12 21:10:00,65.1,53.1,30.09,North,360,0.0,3.0,65,0.00,,SKC,0.58,VWS V12.07,2013-09-13 02:10:00,
2013-09-12 21:16:00,65.1,52.6,30.09,North,1,0.0,3.0,64,0.00,,SKC,0.58,VWS V12.07,2013-09-13 02:16:00,
2013-09-12 21:22:00,65.0,52.5,30.09,North,357,0.0,4.0,64,0.00,,SKC,0.58,VWS V12.07,2013-09-13 02:22:00,
2013-09-12 21:28:00,64.7,51.8,30.10,ENE,64,0.0,4.0,63,0.00,,SKC,0.58,VWS V12.07,2013-09-13 02:28:00,
2013-09-12 21:34:00,64.5,52.1,30.10,NNW,333,0.0,0.0,64,0.00,,SKC,0.58,VWS V12.07,2013-09-13 02:34:00,
2013-09-12 21:40:00,64.2,52.6,30.10,NNW,333,0.0,0.0,66,0.00,,SKC,0.58,VWS V12.07,2013-09-13 02:40:00,
2013-09-12 21:46:00,63.8,52.7,30.10,NNW,333,0.0,0.0,67,0.00,,SKC,0.58,VWS V12.07,2013-09-13 02:46:00,
2013-09-12 21:52:00,63.4,52.7,30.10,NNW,333,0.0,0.0,68,0.00,,SKC,0.58,VWS V12.07,2013-09-13 02:52:00,
2013-09-12 21:58:00,62.9,52.6,30.10,NNW,333,0.0,0.0,69,0.00,,SKC,0.58,VWS V12.07,2013-09-13 02:58:00,
2013-09-12 22:04:00,62.4,53.3,30.10,NNW,333,0.0,0.0,72,0.00,,SKC,0.58,VWS V12.07,2013-09-13 03:04:00,
2013-09-12 22:10:00,61.9,53.5,30.10,North,8,0.0,0.0,74,0.00,,SKC,0.58,VWS V12.07,2013-09-13 03:10:00,
2013-09-12 22:16:00,61.7,53.7,30.11,North,356,0.0,0.0,75,0.00,,SKC,0.58,VWS V12.07,2013-09-13 03:16:00,
2013-09-12 22:22:00,61.5,53.9,30.11,North,355,0.0,0.0,76,0.00,,SKC,0.58,VWS V12.07,2013-09-13 03:22:00,
2013-09-12 22:28:00,61.1,54.2,30.11,North,355,0.0,0.0,78,0.00,,SKC,0.58,VWS V12.07,2013-09-13 03:28:00,
2013-09-12 22:34:00,60.8,54.3,30.11,North,356,0.0,0.0,79,0.00,,SKC,0.58,VWS V12.07,2013-09-13 03:34:00,
2013-09-12 22:40:00,60.4,53.2,30.11,North,9,0.0,1.0,77,0.00,,SKC,0.58,VWS V12.07,2013-09-13 03:40:00,
2013-09-12 22:46:00,60.2,52.6,30.11,North,9,0.0,1.0,76,0.00,,SKC,0.58,VWS V12.07,2013-09-13 03:46:00,
2013-09-12 22:52:00,60.0,51.7,30.11,North,9,0.0,1.0,74,0.00,,SKC,0.58,VWS V12.07,2013-09-13 03:52:00,
2013-09-12 22:58:00,60.4,51.7,30.11,NNE,25,0.0,1.0,73,0.00,,SKC,0.58,VWS V12.07,2013-09-13 03:58:00,
2013-09-12 23:01:00,60.5,52.5,30.11,North,6,1.0,1.0,75,0.00,,SKC,0.58,VWS V12.07,2013-09-13 04:01:00,
2013-09-12 23:04:00,60.6,52.6,30.11,NNE,21,0.0,2.0,75,0.00,,SKC,0.58,VWS V12.07,2013-09-13 04:04:00,
2013-09-12 23:10:00,60.6,52.3,30.11,NNE,25,0.0,2.0,74,0.00,,SKC,0.58,VWS V12.07,2013-09-13 04:10:00,
2013-09-12 23:16:00,60.5,52.5,30.11,North,349,0.0,2.0,75,0.00,,SKC,0.58,VWS V12.07,2013-09-13 04:16:00,
2013-09-12 23:22:00,60.5,52.5,30.11,NNW,328,0.0,2.0,75,0.00,,SKC,0.58,VWS V12.07,2013-09-13 04:22:00,
2013-09-12 23:25:00,60.5,52.2,30.11,NNW,327,0.0,2.0,74,0.00,,SKC,0.58,VWS V12.07,2013-09-13 04:25:00,
2013-09-12 23:31:00,60.4,52.5,30.12,NNW,328,0.0,0.0,75,0.00,,SKC,0.58,VWS V12.07,2013-09-13 04:31:00,
2013-09-12 23:37:00,60.1,52.2,30.12,WNW,295,0.0,1.0,75,0.00,,SKC,0.58,VWS V12.07,2013-09-13 04:37:00,
2013-09-12 23:43:00,60.0,52.4,30.12,WNW,295,0.0,1.0,76,0.00,,SKC,0.58,VWS V12.07,2013-09-13 04:43:00,
2013-09-12 23:49:00,59.8,52.2,30.12,WNW,295,0.0,1.0,76,0.00,,SKC,0.58,VWS V12.07,2013-09-13 04:49:00,
2013-09-12 23:55:00,59.6,52.7,30.12,WNW,295,0.0,1.0,78,0.00,,SKC,0.58,VWS V12.07,2013-09-13 04:55:00,